createdAt,value
2018-06-25T00:03:34.201Z,99.90
2018-06-25T00:06:02.817Z,99.90
2018-06-25T00:08:31.360Z,99.90
2018-06-25T00:10:59.715Z,99.90
2018-06-25T00:15:56.022Z,99.90
2018-06-25T00:18:24.281Z,99.90
2018-06-25T00:20:52.592Z,99.90
2018-06-25T00:23:20.849Z,99.90
2018-06-25T00:25:49.137Z,99.90
2018-06-25T00:28:17.472Z,99.90
2018-06-25T00:30:45.810Z,99.90
2018-06-25T00:33:14.078Z,99.90
2018-06-25T00:35:42.373Z,99.90
2018-06-25T00:38:10.650Z,99.90
2018-06-25T00:40:38.985Z,99.90
2018-06-25T00:43:07.327Z,99.90
2018-06-25T00:45:35.631Z,99.90
2018-06-25T00:48:03.969Z,99.90
2018-06-25T00:50:32.291Z,99.90
2018-06-25T00:53:00.558Z,99.90
2018-06-25T00:55:28.860Z,99.90
2018-06-25T00:57:57.152Z,99.90
2018-06-25T01:00:25.469Z,99.90
2018-06-25T01:05:21.799Z,99.90
2018-06-25T01:07:50.089Z,99.90
2018-06-25T01:10:18.354Z,99.90
2018-06-25T01:12:46.715Z,99.90
2018-06-25T01:15:15.009Z,99.90
2018-06-25T01:17:43.263Z,99.90
2018-06-25T01:20:11.579Z,99.90
2018-06-25T01:22:39.905Z,99.90
2018-06-25T01:27:36.212Z,99.90
2018-06-25T01:30:04.563Z,99.90
2018-06-25T01:32:32.851Z,99.90
2018-06-25T01:35:01.125Z,99.90
2018-06-25T01:37:29.417Z,99.90
2018-06-25T01:39:57.707Z,99.90
2018-06-25T01:42:26.031Z,99.90
2018-06-25T01:44:54.305Z,99.90
2018-06-25T01:47:22.577Z,99.90
2018-06-25T01:49:50.865Z,99.90
2018-06-25T01:52:19.155Z,99.90
2018-06-25T01:54:47.502Z,99.90
2018-06-25T01:57:15.815Z,99.90
2018-06-25T01:59:44.083Z,99.90
2018-06-25T02:02:12.350Z,99.90
2018-06-25T02:04:40.679Z,99.90
2018-06-25T02:07:09.062Z,99.90
2018-06-25T02:09:37.320Z,99.90
2018-06-25T02:12:05.708Z,99.90
2018-06-25T02:14:33.980Z,99.90
2018-06-25T02:17:02.275Z,99.90
2018-06-25T02:19:30.580Z,99.90
2018-06-25T02:21:58.856Z,99.90
2018-06-25T02:24:27.520Z,99.90
2018-06-25T02:26:55.817Z,99.90
2018-06-25T02:29:24.096Z,99.90
2018-06-25T02:31:52.380Z,99.90
2018-06-25T02:34:20.664Z,99.90
2018-06-25T02:36:48.936Z,99.90
2018-06-25T02:39:17.204Z,99.90
2018-06-25T02:41:45.495Z,99.90
2018-06-25T02:44:13.784Z,99.90
2018-06-25T02:46:42.056Z,99.90
2018-06-25T02:49:10.338Z,99.90
2018-06-25T02:51:38.626Z,99.90
2018-06-25T02:54:06.928Z,99.90
2018-06-25T02:56:35.220Z,99.90
2018-06-25T02:59:03.627Z,99.90
2018-06-25T03:03:59.810Z,99.90
2018-06-25T03:06:28.112Z,99.90
2018-06-25T03:08:56.392Z,99.90
2018-06-25T03:11:24.785Z,99.90
2018-06-25T03:13:53.051Z,99.90
2018-06-25T03:16:21.332Z,99.90
2018-06-25T03:18:49.632Z,99.90
2018-06-25T03:21:17.904Z,99.90
2018-06-25T03:23:46.180Z,99.90
2018-06-25T03:26:14.569Z,99.90
2018-06-25T03:28:42.836Z,99.90
2018-06-25T03:31:11.095Z,99.90
2018-06-25T03:33:39.398Z,99.90
2018-06-25T03:36:07.678Z,99.90
2018-06-25T03:38:35.948Z,99.90
2018-06-25T03:41:04.200Z,99.90
2018-06-25T03:43:32.600Z,99.90
2018-06-25T03:50:57.068Z,99.90
2018-06-25T03:53:25.378Z,99.90
2018-06-25T03:55:53.647Z,99.90
2018-06-25T03:58:22.029Z,99.90
2018-06-25T04:00:50.295Z,99.90
2018-06-25T04:03:18.560Z,99.90
2018-06-25T04:05:46.840Z,99.90
2018-06-25T04:10:43.152Z,99.90
2018-06-25T04:13:11.432Z,99.90
2018-06-25T04:15:39.720Z,99.90
2018-06-25T04:18:08.080Z,99.90
2018-06-25T04:20:36.395Z,99.90
2018-06-25T04:23:04.688Z,99.90
2018-06-25T04:25:32.948Z,99.90
2018-06-25T04:28:01.216Z,99.90
2018-06-25T04:30:29.491Z,99.90
2018-06-25T04:32:57.752Z,99.90
2018-06-25T04:35:26.056Z,99.90
2018-06-25T04:37:54.328Z,99.90
2018-06-25T04:40:22.743Z,99.90
2018-06-25T04:42:50.896Z,99.90
2018-06-25T04:45:19.174Z,99.90
2018-06-25T04:47:47.472Z,99.90
2018-06-25T04:50:15.753Z,99.90
2018-06-25T04:52:44.024Z,99.90
2018-06-25T04:55:12.460Z,99.90
2018-06-25T04:57:40.728Z,99.90
2018-06-25T05:00:09.064Z,99.90
2018-06-25T05:02:37.345Z,99.90
2018-06-25T05:05:05.970Z,99.90
2018-06-25T05:07:34.244Z,99.90
2018-06-25T05:10:02.538Z,99.90
2018-06-25T05:12:30.826Z,99.90
2018-06-25T05:14:59.108Z,99.90
2018-06-25T05:17:27.394Z,99.90
2018-06-25T05:19:55.697Z,99.90
2018-06-25T05:22:23.978Z,99.90
2018-06-25T05:24:52.280Z,99.90
2018-06-25T05:29:48.578Z,99.90
2018-06-25T05:32:16.852Z,99.90
2018-06-25T05:34:45.110Z,99.90
2018-06-25T05:37:13.396Z,99.90
2018-06-25T05:39:41.735Z,99.90
2018-06-25T05:42:14.170Z,99.90
2018-06-25T05:44:42.472Z,99.90
2018-06-25T05:47:10.748Z,99.90
2018-06-25T05:49:39.026Z,99.90
2018-06-25T05:52:07.308Z,99.90
2018-06-25T05:54:35.596Z,99.90
2018-06-25T05:57:03.938Z,99.90
2018-06-25T05:59:32.201Z,99.90
2018-06-25T06:02:00.497Z,99.90
2018-06-25T06:06:56.833Z,99.90
2018-06-25T06:09:25.441Z,99.90
2018-06-25T06:11:53.761Z,99.90
2018-06-25T06:14:22.045Z,99.90
2018-06-25T06:16:50.323Z,99.90
2018-06-25T06:19:18.593Z,99.90
2018-06-25T06:21:46.871Z,99.90
2018-06-25T06:24:15.147Z,99.90
2018-06-25T06:26:43.422Z,99.90
2018-06-25T06:31:39.841Z,99.90
2018-06-25T06:34:08.117Z,99.90
2018-06-25T06:36:36.393Z,99.90
2018-06-25T06:39:08.426Z,99.90
2018-06-25T06:41:36.714Z,99.90
2018-06-25T06:44:05.007Z,99.90
2018-06-25T06:46:33.296Z,99.90
2018-06-25T06:49:01.571Z,99.90
2018-06-25T06:51:29.898Z,99.90
2018-06-25T06:53:58.179Z,99.90
2018-06-25T06:58:54.668Z,99.90
2018-06-25T07:01:23.049Z,99.90
2018-06-25T07:03:51.399Z,99.90
2018-06-25T07:06:20.013Z,99.90
2018-06-25T07:08:48.396Z,99.90
2018-06-25T07:11:16.659Z,99.90
2018-06-25T07:13:45.012Z,99.90
2018-06-25T07:16:13.271Z,99.90
2018-06-25T07:18:41.562Z,99.90
2018-06-25T07:21:09.908Z,99.90
2018-06-25T07:23:38.189Z,99.90
2018-06-25T07:26:06.528Z,99.90
2018-06-25T07:28:34.783Z,99.90
2018-06-25T07:31:03.093Z,99.90
2018-06-25T07:33:31.397Z,99.90
2018-06-25T07:35:59.688Z,99.90
2018-06-25T07:38:27.970Z,99.90
2018-06-25T07:43:24.265Z,99.90
2018-06-25T07:45:52.576Z,99.90
2018-06-25T07:48:20.904Z,99.90
2018-06-25T07:50:49.166Z,99.90
2018-06-25T07:53:17.513Z,99.90
2018-06-25T07:55:45.715Z,99.90
2018-06-25T07:58:14.029Z,99.90
2018-06-25T08:00:42.327Z,99.90
2018-06-25T08:03:10.611Z,99.90
2018-06-25T08:05:38.881Z,99.90
2018-06-25T08:08:07.197Z,99.90
2018-06-25T08:13:03.589Z,99.90
2018-06-25T08:15:31.932Z,99.90
2018-06-25T08:20:28.219Z,99.90
2018-06-25T08:22:56.501Z,99.90
2018-06-25T08:25:24.783Z,99.90
2018-06-25T08:27:53.103Z,99.90
2018-06-25T08:30:21.382Z,99.90
2018-06-25T08:32:49.708Z,99.90
2018-06-25T08:35:17.976Z,99.90
2018-06-25T08:37:46.276Z,99.90
2018-06-25T08:42:42.613Z,99.90
2018-06-25T08:45:10.891Z,99.90
2018-06-25T08:47:39.206Z,99.90
2018-06-25T08:50:07.537Z,99.90
2018-06-25T08:52:35.811Z,99.90
2018-06-25T08:55:04.229Z,99.90
2018-06-25T08:57:32.522Z,99.90
2018-06-25T09:00:00.824Z,99.90
2018-06-25T09:07:25.217Z,99.90
2018-06-25T09:09:53.596Z,99.90
2018-06-25T09:14:49.832Z,99.90
2018-06-25T09:17:18.128Z,99.90
2018-06-25T09:19:46.410Z,98.60
2018-06-25T09:22:14.709Z,99.90
2018-06-25T09:24:43.008Z,97.20
2018-06-25T09:27:11.344Z,96.60
2018-06-25T09:29:39.637Z,95.00
2018-06-25T09:32:07.928Z,95.20
2018-06-25T09:34:41.512Z,94.60
2018-06-25T09:37:09.842Z,94.90
2018-06-25T09:39:38.124Z,96.00
2018-06-25T09:42:06.408Z,97.40
2018-06-25T09:44:34.767Z,96.90
2018-06-25T09:47:03.100Z,96.90
2018-06-25T09:49:31.417Z,96.40
2018-06-25T09:51:59.723Z,95.40
2018-06-25T09:54:28.116Z,95.30
2018-06-25T09:56:56.414Z,94.50
2018-06-25T09:59:24.709Z,95.20
2018-06-25T10:04:21.042Z,95.50
2018-06-25T10:06:49.348Z,94.30
2018-06-25T10:11:45.619Z,94.50
2018-06-25T10:14:13.962Z,94.60
2018-06-25T10:16:42.348Z,94.60
2018-06-25T10:19:10.648Z,94.40
2018-06-25T10:21:38.980Z,94.00
2018-06-25T10:24:07.248Z,93.80
2018-06-25T10:26:35.550Z,94.70
2018-06-25T10:29:03.836Z,93.90
2018-06-25T10:34:00.128Z,93.50
2018-06-25T10:36:28.416Z,93.10
2018-06-25T10:38:56.714Z,93.90
2018-06-25T10:41:25.035Z,91.40
2018-06-25T10:43:54.140Z,91.20
2018-06-25T10:48:50.734Z,90.80
2018-06-25T10:51:19.221Z,92.40
2018-06-25T10:53:47.540Z,91.80
2018-06-25T10:56:15.852Z,90.40
2018-06-25T10:58:44.203Z,91.00
2018-06-25T11:01:12.604Z,87.90
2018-06-25T11:03:40.940Z,90.90
2018-06-25T11:06:10.129Z,91.10
2018-06-25T11:08:39.344Z,87.60
2018-06-25T11:11:07.687Z,86.20
2018-06-25T11:13:36.100Z,84.20
2018-06-25T11:16:04.927Z,80.80
2018-06-25T11:18:33.238Z,80.50
2018-06-25T11:21:01.555Z,87.10
2018-06-25T11:23:29.908Z,88.40
2018-06-25T11:25:58.298Z,89.40
2018-06-25T11:28:26.600Z,86.10
2018-06-25T11:30:54.969Z,83.40
2018-06-25T11:33:23.592Z,82.90
2018-06-25T11:35:51.940Z,82.50
2018-06-25T11:38:20.240Z,80.80
2018-06-25T11:40:48.668Z,83.50
2018-06-25T11:43:17.172Z,80.60
2018-06-25T11:45:45.500Z,81.30
2018-06-25T11:48:14.108Z,81.20
2018-06-25T11:50:42.452Z,81.40
2018-06-25T11:53:10.754Z,83.60
2018-06-25T11:55:39.137Z,81.60
2018-06-25T11:58:07.482Z,82.90
2018-06-25T12:00:35.932Z,83.50
2018-06-25T12:03:04.395Z,84.50
2018-06-25T12:05:32.600Z,82.60
2018-06-25T12:08:00.904Z,83.10
2018-06-25T12:10:29.240Z,82.60
2018-06-25T12:12:57.496Z,83.70
2018-06-25T12:15:25.822Z,86.50
2018-06-25T12:17:54.148Z,87.10
2018-06-25T12:20:22.440Z,87.50
2018-06-25T12:22:50.737Z,88.30
2018-06-25T12:25:19.031Z,86.00
2018-06-25T12:27:47.404Z,86.20
2018-06-25T12:30:15.632Z,88.30
2018-06-25T12:32:44.021Z,91.50
2018-06-25T12:35:12.406Z,90.60
2018-06-25T12:40:08.661Z,81.70
2018-06-25T12:42:37.124Z,83.10
2018-06-25T12:45:05.526Z,83.00
2018-06-25T12:47:33.824Z,82.10
2018-06-25T12:50:02.292Z,84.00
2018-06-25T12:52:30.593Z,82.90
2018-06-25T12:57:26.945Z,84.30
2018-06-25T12:59:55.243Z,84.30
2018-06-25T13:02:23.521Z,80.90
2018-06-25T13:04:51.814Z,82.20
2018-06-25T13:07:20.104Z,82.90
2018-06-25T13:09:48.390Z,80.50
2018-06-25T13:12:16.704Z,82.70
2018-06-25T13:14:45.010Z,83.70
2018-06-25T13:17:13.340Z,85.40
2018-06-25T13:19:41.680Z,87.20
2018-06-25T13:22:09.986Z,88.40
2018-06-25T13:27:06.348Z,88.30
2018-06-25T13:32:02.767Z,83.20
2018-06-25T13:34:31.080Z,80.10
2018-06-25T13:36:59.358Z,81.90
2018-06-25T13:39:27.628Z,80.20
2018-06-25T13:41:55.924Z,80.50
2018-06-25T13:44:24.281Z,81.30
2018-06-25T13:46:52.518Z,82.90
2018-06-25T13:49:20.860Z,82.60
2018-06-25T13:51:49.195Z,80.40
2018-06-25T13:54:17.509Z,81.80
2018-06-25T13:56:45.868Z,80.80
2018-06-25T13:59:14.208Z,85.60
2018-06-25T14:01:42.492Z,82.20
2018-06-25T14:04:10.804Z,81.60
2018-06-25T14:06:39.265Z,81.10
2018-06-25T14:09:09.476Z,83.10
2018-06-25T14:11:37.851Z,85.40
2018-06-25T14:14:06.855Z,83.50
2018-06-25T14:16:35.346Z,83.40
2018-06-25T14:19:03.555Z,84.70
2018-06-25T14:24:05.297Z,82.60
2018-06-25T14:26:38.868Z,82.60
2018-06-25T14:29:11.411Z,86.20
2018-06-25T14:31:39.700Z,87.10
2018-06-25T14:34:13.419Z,88.00
2018-06-25T14:36:41.955Z,90.20
2018-06-25T14:39:10.973Z,84.70
2018-06-25T14:41:39.273Z,79.10
2018-06-25T14:46:36.320Z,83.50
2018-06-25T14:49:04.621Z,82.60
2018-06-25T14:51:32.972Z,82.00
2018-06-25T14:54:01.590Z,80.20
2018-06-25T14:56:29.859Z,78.40
2018-06-25T14:58:58.185Z,80.40
2018-06-25T15:01:26.494Z,80.50
2018-06-25T15:03:54.764Z,83.90
2018-06-25T15:06:23.078Z,84.60
2018-06-25T15:08:51.355Z,87.80
2018-06-25T15:11:19.633Z,87.10
2018-06-25T15:13:47.913Z,86.50
2018-06-25T15:16:16.192Z,84.40
2018-06-25T15:18:44.563Z,81.00
2018-06-25T15:21:12.883Z,81.20
2018-06-25T15:23:41.243Z,79.60
2018-06-25T15:28:37.567Z,77.80
2018-06-25T15:31:05.906Z,78.90
2018-06-25T15:33:34.217Z,80.90
2018-06-25T15:36:02.499Z,81.80
2018-06-25T15:38:30.773Z,79.40
2018-06-25T15:40:59.076Z,77.70
2018-06-25T15:43:27.366Z,78.30
2018-06-25T15:45:55.651Z,79.70
2018-06-25T15:48:23.967Z,80.30
2018-06-25T15:50:52.282Z,81.20
2018-06-25T15:53:20.588Z,79.60
2018-06-25T15:55:48.893Z,79.50
2018-06-25T15:58:17.336Z,78.30
2018-06-25T16:00:45.637Z,79.30
2018-06-25T16:03:13.942Z,81.70
2018-06-25T16:05:42.245Z,82.60
2018-06-25T16:08:10.548Z,81.00
2018-06-25T16:10:38.890Z,79.70
2018-06-25T16:13:07.287Z,78.50
2018-06-25T16:15:35.626Z,75.80
2018-06-25T16:18:03.919Z,75.90
2018-06-25T16:23:00.249Z,75.50
2018-06-25T16:25:28.543Z,76.80
2018-06-25T16:27:56.822Z,77.20
2018-06-25T16:30:25.123Z,75.80
2018-06-25T16:35:21.446Z,76.30
2018-06-25T16:37:49.746Z,76.40
2018-06-25T16:40:18.106Z,76.80
2018-06-25T16:42:46.381Z,75.60
2018-06-25T16:45:14.681Z,74.80
2018-06-25T16:47:42.965Z,73.00
2018-06-25T16:50:11.257Z,74.90
2018-06-25T16:52:39.539Z,74.50
2018-06-25T16:55:07.872Z,74.70
2018-06-25T16:57:36.172Z,75.20
2018-06-25T17:00:05.074Z,74.80
2018-06-25T17:02:33.378Z,75.00
2018-06-25T17:05:01.660Z,75.00
2018-06-25T17:07:29.937Z,72.30
2018-06-25T17:09:58.306Z,68.50
2018-06-25T17:12:26.601Z,63.80
2018-06-25T17:14:54.887Z,60.10
2018-06-25T17:17:23.370Z,58.50
2018-06-25T17:19:51.964Z,57.20
2018-06-25T17:22:20.255Z,56.20
2018-06-25T17:24:48.533Z,55.80
2018-06-25T17:27:17.419Z,54.60
2018-06-25T17:29:45.787Z,54.90
2018-06-25T17:32:14.094Z,53.70
2018-06-25T17:34:42.464Z,54.10
2018-06-25T17:37:10.794Z,53.50
2018-06-25T17:39:39.128Z,54.50
2018-06-25T17:44:35.422Z,56.00
2018-06-25T17:47:03.736Z,56.00
2018-06-25T17:49:32.040Z,55.70
2018-06-25T17:52:00.412Z,55.00
2018-06-25T17:54:28.720Z,56.00
2018-06-25T17:56:57.021Z,55.60
2018-06-25T17:59:25.439Z,56.20
2018-06-25T18:01:53.736Z,57.40
2018-06-25T18:04:22.047Z,58.40
2018-06-25T18:06:50.566Z,59.90
2018-06-25T18:09:18.888Z,61.10
2018-06-25T18:11:47.212Z,61.60
2018-06-25T18:14:15.541Z,63.80
2018-06-25T18:16:43.836Z,65.90
2018-06-25T18:19:12.118Z,66.90
2018-06-25T18:21:40.405Z,68.30
2018-06-25T18:24:08.794Z,69.70
2018-06-25T18:26:37.133Z,71.00
2018-06-25T18:29:05.526Z,72.50
2018-06-25T18:31:33.929Z,74.70
2018-06-25T18:34:02.226Z,77.10
2018-06-25T18:36:30.573Z,79.10
2018-06-25T18:38:58.921Z,81.30
2018-06-25T18:43:55.225Z,85.60
2018-06-25T18:46:23.515Z,87.80
2018-06-25T18:48:51.813Z,88.90
2018-06-25T18:51:20.125Z,90.10
2018-06-25T18:53:48.416Z,90.40
2018-06-25T18:56:16.718Z,91.00
2018-06-25T18:58:45.012Z,91.70
2018-06-25T19:01:13.574Z,92.00
2018-06-25T19:03:41.891Z,92.00
2018-06-25T19:06:10.230Z,92.50
2018-06-25T19:08:38.548Z,93.20
2018-06-25T19:11:06.935Z,93.90
2018-06-25T19:13:35.279Z,94.30
2018-06-25T19:18:31.719Z,95.70
2018-06-25T19:21:00.993Z,96.40
2018-06-25T19:25:57.550Z,97.70
2018-06-25T19:28:25.886Z,98.70
2018-06-25T19:30:54.223Z,99.30
2018-06-25T19:35:50.599Z,99.90
2018-06-25T19:38:18.920Z,99.90
2018-06-25T19:40:47.276Z,99.90
2018-06-25T19:43:15.573Z,99.90
2018-06-25T19:45:43.864Z,99.90
2018-06-25T19:53:08.276Z,99.90
2018-06-25T19:55:36.555Z,99.90
2018-06-25T19:58:04.876Z,99.90
2018-06-25T20:00:33.712Z,99.90
2018-06-25T20:05:30.096Z,99.90
2018-06-25T20:07:58.420Z,99.90
2018-06-25T20:10:27.746Z,99.90
2018-06-25T20:12:56.119Z,99.90
2018-06-25T20:15:24.649Z,99.90
2018-06-25T20:17:52.985Z,99.90
2018-06-25T20:20:21.320Z,99.90
2018-06-25T20:22:49.614Z,99.90
2018-06-25T20:25:17.946Z,99.90
2018-06-25T20:27:46.262Z,99.90
2018-06-25T20:30:14.590Z,99.90
2018-06-25T20:32:42.949Z,99.90
2018-06-25T20:35:11.290Z,99.90
2018-06-25T20:37:39.648Z,99.90
2018-06-25T20:40:07.986Z,99.90
2018-06-25T20:42:36.352Z,99.90
2018-06-25T20:45:04.728Z,99.90
2018-06-25T20:47:33.077Z,99.90
2018-06-25T20:50:01.449Z,99.90
2018-06-25T20:52:29.756Z,99.90
2018-06-25T20:54:58.051Z,99.90
2018-06-25T20:57:26.384Z,99.90
2018-06-25T20:59:54.692Z,99.90
2018-06-25T21:02:23.212Z,99.90
2018-06-25T21:04:51.518Z,99.90
2018-06-25T21:07:19.856Z,99.90
2018-06-25T21:09:48.193Z,99.90
2018-06-25T21:12:16.549Z,99.90
2018-06-25T21:14:44.852Z,99.90
2018-06-25T21:17:13.157Z,99.90
2018-06-25T21:19:41.486Z,99.90
2018-06-25T21:22:09.828Z,99.90
2018-06-25T21:24:38.133Z,99.90
2018-06-25T21:29:34.492Z,99.90
2018-06-25T21:34:31.020Z,99.90
2018-06-25T21:36:59.373Z,99.90
2018-06-25T21:39:27.705Z,99.90
2018-06-25T21:41:56.000Z,99.90
2018-06-25T21:44:24.326Z,99.90
2018-06-25T21:46:52.657Z,99.90
2018-06-25T21:49:20.969Z,99.90
2018-06-25T21:51:49.258Z,99.90
2018-06-25T21:54:17.528Z,99.90
2018-06-25T21:56:45.812Z,99.90
2018-06-25T21:59:14.160Z,99.90
2018-06-25T22:01:42.559Z,99.90
2018-06-25T22:04:10.864Z,99.90
2018-06-25T22:06:39.159Z,99.90
2018-06-25T22:09:08.869Z,99.90
2018-06-25T22:11:37.201Z,99.90
2018-06-25T22:14:05.533Z,99.90
2018-06-25T22:16:33.864Z,99.90
2018-06-25T22:19:02.167Z,99.90
2018-06-25T22:21:30.460Z,99.90
2018-06-25T22:23:58.752Z,99.90
2018-06-25T22:26:27.047Z,99.90
2018-06-25T22:28:55.371Z,99.90
2018-06-25T22:31:23.624Z,99.90
2018-06-25T22:33:51.963Z,99.90
2018-06-25T22:36:20.336Z,99.90
2018-06-25T22:38:48.598Z,99.90
2018-06-25T22:41:16.953Z,99.90
2018-06-25T22:43:45.552Z,99.90
2018-06-25T22:46:13.866Z,99.90
2018-06-25T22:48:42.311Z,99.90
2018-06-25T22:51:10.687Z,99.90
2018-06-25T22:53:38.979Z,99.90
2018-06-25T22:56:07.257Z,99.90
2018-06-25T22:58:35.552Z,99.90
2018-06-25T23:01:03.840Z,99.90
2018-06-25T23:03:32.185Z,99.90
2018-06-25T23:08:28.482Z,99.90
2018-06-25T23:13:24.769Z,99.90
2018-06-25T23:15:53.077Z,99.90
2018-06-25T23:18:21.349Z,99.90
2018-06-25T23:20:49.625Z,99.90
2018-06-25T23:23:17.902Z,99.90
2018-06-25T23:25:46.186Z,99.90
2018-06-25T23:28:14.570Z,99.90
2018-06-25T23:30:42.817Z,99.90
2018-06-25T23:35:39.123Z,99.90
2018-06-25T23:38:07.440Z,99.90
2018-06-25T23:40:35.742Z,99.90
2018-06-25T23:45:32.040Z,99.90
2018-06-25T23:48:00.341Z,99.90
2018-06-25T23:50:28.643Z,99.90
2018-06-25T23:52:56.982Z,99.90
2018-06-25T23:55:25.287Z,99.90
2018-06-25T23:57:53.668Z,99.90
